Terminal Aerodrome Forecast
Issued by NWS

Home | Current Version | Previous Version | Text Only | Print | Product List | Glossary On
Versions: 1 2 3 4 5 6 7 8 9 10 11 12 13 14 15 16 17 18 19
000
FTUS44 KLZK 281200 AAA
TAFBPK
TAF AMD
KBPK 281240Z 2813/0112 10007KT 5SM -SN OVC040
      TEMPO 2813/2817 3SM -SN
     FM281800 10005KT 3SM -SN BR OVC030
     FM010400 VRB03KT 5SM -FZRA OVC015=

USA.gov is the U.S. government's official web portal to all federal, state and local government web resources and services.